Time;durP1;ratioP1;P1;durP2;ratioP2;P2;SDS_P1;SDS_P2;PMS_P1;PMS_P2;Temp;Humidity;BMP_temperature;BMP_pressure;BME280_temperature;BME280_humidity;BME280_pressure;Samples;Min_cycle;Max_cycle;Signal;HPM_P1;HPM_P2
2023/07/16 00:00:33;;;;;;;;;2.33;2.33;;;;;-147.70;100.00;61350.09;5040107;28;45278;-81
2023/07/16 00:02:59;;;;;;;;;2.00;2.00;;;;;-147.70;100.00;61350.09;5040078;28;45468;-82
2023/07/16 00:05:24;;;;;;;;;3.00;3.00;;;;;-147.70;100.00;61350.09;5039514;28;46323;-82
2023/07/16 00:07:50;;;;;;;;;1.00;1.00;;;;;-147.70;100.00;61350.09;5039754;28;45350;-83
2023/07/16 00:10:15;;;;;;;;;4.00;2.00;;;;;-147.70;100.00;61350.09;5039806;28;45398;-82
2023/07/16 00:12:40;;;;;;;;;1.00;1.00;;;;;-147.70;100.00;61350.09;5039928;28;45326;-82
2023/07/16 00:15:06;;;;;;;;;2.33;2.33;;;;;-147.70;100.00;61350.09;5039654;28;45359;-80
2023/07/16 00:17:33;;;;;;;;;4.00;3.00;;;;;-147.70;100.00;61350.09;5039508;28;45402;-81
2023/07/16 00:19:59;;;;;;;;;2.00;2.00;;;;;-147.70;100.00;61350.09;5040033;28;45322;-82
2023/07/16 00:22:24;;;;;;;;;5.00;3.00;;;;;-147.70;100.00;61350.09;5040057;28;45326;-77
2023/07/16 00:24:49;;;;;;;;;2.33;2.33;;;;;-147.70;100.00;61350.09;5039612;28;45576;-81
2023/07/16 00:27:15;;;;;;;;;4.67;3.00;;;;;-147.70;100.00;61350.09;5039651;28;45439;-80
2023/07/16 00:29:40;;;;;;;;;5.33;3.00;;;;;-147.70;100.00;61350.09;5039529;28;45305;-81
2023/07/16 00:32:06;;;;;;;;;4.33;3.00;;;;;-147.70;100.00;61350.09;5039658;28;45446;-81
2023/07/16 00:34:31;;;;;;;;;4.33;3.00;;;;;-147.70;100.00;61350.09;5039214;28;46385;-83
2023/07/16 00:37:01;;;;;;;;;4.33;3.00;;;;;-147.70;100.00;61350.09;5039083;28;45392;-83
2023/07/16 00:39:29;;;;;;;;;1.67;1.67;;;;;-147.70;100.00;61350.09;5039431;28;45249;-83
2023/07/16 00:41:55;;;;;;;;;3.67;3.67;;;;;-147.70;100.00;61350.09;5039650;28;45459;-85
2023/07/16 00:44:21;;;;;;;;;6.67;3.67;;;;;-147.70;100.00;61350.09;5039162;28;46855;-81
2023/07/16 00:46:46;;;;;;;;;5.33;3.00;;;;;-147.70;100.00;61350.09;5039248;28;45472;-83
2023/07/16 00:49:12;;;;;;;;;2.00;2.00;;;;;-147.70;100.00;61350.09;5039259;28;45316;-83
2023/07/16 00:51:38;;;;;;;;;3.00;2.00;;;;;-147.70;100.00;61350.09;5039295;28;45318;-83
2023/07/16 00:54:04;;;;;;;;;2.67;2.33;;;;;-147.70;100.00;61350.09;5038946;28;46178;-83
2023/07/16 00:56:29;;;;;;;;;5.33;3.00;;;;;-147.70;100.00;61350.09;5038924;28;45315;-84
2023/07/16 00:58:54;;;;;;;;;3.00;3.00;;;;;-147.70;100.00;61350.09;5039312;28;45302;-83
2023/07/16 01:01:20;;;;;;;;;3.67;2.00;;;;;-147.70;100.00;61350.09;5039247;28;45431;-80
2023/07/16 01:03:45;;;;;;;;;4.00;3.00;;;;;-147.70;100.00;61350.09;5038749;28;46228;-81
2023/07/16 01:06:25;;;;;;;;;7.00;3.33;;;;;-147.70;100.00;61350.09;5038712;28;45371;-79
2023/07/16 01:09:01;;;;;;;;;6.33;5.00;;;;;-147.70;100.00;61350.09;5038734;28;45306;-80
2023/07/16 01:11:27;;;;;;;;;7.33;5.00;;;;;-147.70;100.00;61350.09;5038474;28;45341;-81
2023/07/16 01:13:53;;;;;;;;;4.33;3.00;;;;;-147.70;100.00;61350.09;5038684;28;45366;-80
2023/07/16 01:16:23;;;;;;;;;7.33;3.00;;;;;-147.70;100.00;61350.09;5038470;28;45336;-78
2023/07/16 01:18:49;;;;;;;;;4.33;4.33;;;;;-147.70;100.00;61350.09;5038617;28;45346;-80
2023/07/16 01:21:23;;;;;;;;;4.67;4.33;;;;;-147.70;100.00;61350.09;5039058;28;45333;-81
2023/07/16 01:24:10;;;;;;;;;6.67;4.00;;;;;-147.70;100.00;61350.09;5038543;28;45646;-80
2023/07/16 01:27:08;;;;;;;;;5.33;3.33;;;;;-147.70;100.00;61350.09;5038442;28;45302;-82
2023/07/16 01:29:58;;;;;;;;;7.00;6.00;;;;;-147.70;100.00;61350.09;5038536;28;45460;-82
2023/07/16 01:32:25;;;;;;;;;7.00;5.00;;;;;-147.70;100.00;61350.09;5038847;28;45323;-81
2023/07/16 01:34:52;;;;;;;;;6.33;4.67;;;;;-147.70;100.00;61350.09;5038164;28;45441;-80
2023/07/16 01:37:18;;;;;;;;;5.00;5.00;;;;;-147.70;100.00;61350.09;5036906;28;45408;-79
2023/07/16 01:39:43;;;;;;;;;5.67;4.00;;;;;-147.70;100.00;61350.09;5038406;28;45270;-80
2023/07/16 01:42:09;;;;;;;;;6.33;6.33;;;;;-147.70;100.00;61350.09;5038446;28;45365;-80
2023/07/16 01:44:34;;;;;;;;;10.67;6.33;;;;;-147.70;100.00;61350.09;5038374;28;45399;-79
2023/07/16 01:47:14;;;;;;;;;4.00;3.67;;;;;-147.70;100.00;61350.09;5038221;28;45325;-81
2023/07/16 01:49:41;;;;;;;;;5.33;5.33;;;;;-147.70;100.00;61350.09;5038233;28;45348;-81
2023/07/16 01:52:07;;;;;;;;;7.33;5.00;;;;;-147.70;100.00;61350.09;5038364;28;45937;-80
2023/07/16 01:54:32;;;;;;;;;6.33;4.00;;;;;-147.70;100.00;61350.09;5037693;28;46594;-81
2023/07/16 01:56:58;;;;;;;;;5.33;4.67;;;;;-147.70;100.00;61350.09;5038209;28;45413;-81
2023/07/16 01:59:23;;;;;;;;;6.00;5.33;;;;;-147.70;100.00;61350.09;5038152;28;45311;-81
2023/07/16 02:01:48;;;;;;;;;4.33;4.00;;;;;-147.70;100.00;61350.09;5038121;28;45450;-81
2023/07/16 02:04:14;;;;;;;;;5.67;5.67;;;;;-147.70;100.00;61350.09;5038127;28;45349;-78
2023/07/16 02:06:39;;;;;;;;;4.00;4.00;;;;;-147.70;100.00;61350.09;5037703;28;45463;-79
2023/07/16 02:09:04;;;;;;;;;3.67;3.00;;;;;-147.70;100.00;61350.09;5038274;28;45337;-80
2023/07/16 02:11:30;;;;;;;;;5.00;5.00;;;;;-147.70;100.00;61350.09;5038149;28;45409;-78
2023/07/16 02:13:56;;;;;;;;;7.00;4.00;;;;;-147.70;100.00;61350.09;5037800;28;47812;-79
2023/07/16 02:16:22;;;;;;;;;6.33;4.67;;;;;-147.70;100.00;61350.09;5037909;28;45316;-79
2023/07/16 02:18:47;;;;;;;;;4.33;4.33;;;;;-147.70;100.00;61350.09;5037756;28;45333;-79
2023/07/16 02:21:12;;;;;;;;;5.00;5.00;;;;;-147.70;100.00;61350.09;5037993;28;45510;-81
2023/07/16 02:23:38;;;;;;;;;5.67;5.67;;;;;-147.70;100.00;61350.09;5037674;28;46522;-79
2023/07/16 02:26:03;;;;;;;;;7.33;6.33;;;;;-147.70;100.00;61350.09;5037639;28;45253;-81
2023/07/16 02:28:28;;;;;;;;;6.00;5.00;;;;;-147.70;100.00;61350.09;5037992;28;45266;-81
2023/07/16 02:30:54;;;;;;;;;7.33;5.33;;;;;-147.70;100.00;61350.09;5037833;28;45234;-80
2023/07/16 02:33:19;;;;;;;;;5.67;4.67;;;;;-147.70;100.00;61350.09;5037593;28;45509;-80
2023/07/16 02:35:57;;;;;;;;;9.67;6.33;;;;;-147.70;100.00;61350.09;5037333;28;45318;-82
2023/07/16 02:38:22;;;;;;;;;4.67;4.67;;;;;-147.70;100.00;61350.09;5037639;28;45451;-80
2023/07/16 02:40:48;;;;;;;;;9.33;6.00;;;;;-147.70;100.00;61350.09;5037783;28;45272;-81
2023/07/16 02:43:14;;;;;;;;;6.67;5.00;;;;;-147.70;100.00;61350.09;5037244;28;45683;-82
2023/07/16 02:45:40;;;;;;;;;8.67;5.33;;;;;-147.70;100.00;61350.09;5037377;28;45400;-80
2023/07/16 02:48:06;;;;;;;;;9.67;5.00;;;;;-147.70;100.00;61350.09;5037548;28;45533;-80
2023/07/16 02:50:38;;;;;;;;;6.00;6.00;;;;;-147.70;100.00;61350.09;5037509;28;45429;-81
2023/07/16 02:53:04;;;;;;;;;6.00;6.00;;;;;-147.70;100.00;61350.09;5037137;28;45420;-79
2023/07/16 02:55:30;;;;;;;;;5.00;5.00;;;;;-147.70;100.00;61350.09;5036978;28;45463;-78
2023/07/16 02:57:56;;;;;;;;;5.00;5.00;;;;;-147.70;100.00;61350.09;5037349;28;45384;-81
2023/07/16 03:00:21;;;;;;;;;10.00;6.00;;;;;-147.70;100.00;61350.09;5037498;28;45370;-78
2023/07/16 03:02:46;;;;;;;;;7.00;7.00;;;;;-147.70;100.00;61350.09;5036787;28;47134;-81
2023/07/16 03:05:12;;;;;;;;;7.67;7.67;;;;;-147.70;100.00;61350.09;5037108;28;45380;-80
2023/07/16 03:07:37;;;;;;;;;9.00;7.00;;;;;-147.70;100.00;61350.09;5037025;28;45405;-81
2023/07/16 03:10:03;;;;;;;;;9.33;6.33;;;;;-147.70;100.00;61350.09;5037423;28;45403;-80
2023/07/16 03:12:28;;;;;;;;;12.00;7.67;;;;;-147.70;100.00;61350.09;5037151;28;46387;-81
2023/07/16 03:14:54;;;;;;;;;8.67;6.67;;;;;-147.70;100.00;61350.09;5036876;28;45296;-83
2023/07/16 03:17:21;;;;;;;;;6.67;6.00;;;;;-147.70;100.00;61350.09;5037084;28;45278;-82
2023/07/16 03:19:46;;;;;;;;;8.33;8.33;;;;;-147.70;100.00;61350.09;5037196;28;45373;-80
2023/07/16 03:22:12;;;;;;;;;9.67;7.00;;;;;-147.70;100.00;61350.09;5036660;28;45541;-82
2023/07/16 03:24:37;;;;;;;;;10.67;8.33;;;;;-147.70;100.00;61350.09;5037026;28;45324;-81
2023/07/16 03:27:03;;;;;;;;;10.33;8.33;;;;;-147.70;100.00;61350.09;5036887;28;45353;-80
2023/07/16 03:29:28;;;;;;;;;12.00;7.00;;;;;-147.70;100.00;61350.09;5036944;28;45532;-81
2023/07/16 03:31:53;;;;;;;;;10.33;7.00;;;;;-147.70;100.00;61350.09;5036758;28;46716;-82
2023/07/16 03:34:19;;;;;;;;;14.67;10.00;;;;;-147.70;100.00;61350.09;5039472;28;45380;-82
2023/07/16 03:36:44;;;;;;;;;10.00;6.00;;;;;-147.70;100.00;61350.09;5040625;28;45383;-81
2023/07/16 03:39:09;;;;;;;;;9.00;7.00;;;;;-147.70;100.00;61350.09;5040519;28;45400;-82
2023/07/16 03:41:35;;;;;;;;;8.67;8.00;;;;;-147.70;100.00;61350.09;5040147;28;45384;-79
2023/07/16 03:44:00;;;;;;;;;6.00;6.00;;;;;-147.70;100.00;61350.09;5040301;28;45807;-80
2023/07/16 03:46:25;;;;;;;;;8.00;6.00;;;;;-147.70;100.00;61350.09;5040264;28;45284;-78
2023/07/16 03:48:51;;;;;;;;;8.67;6.33;;;;;-147.70;100.00;61350.09;5040506;28;45463;-81
2023/07/16 03:51:17;;;;;;;;;10.00;10.00;;;;;-147.70;100.00;61350.09;5039914;28;46203;-80
2023/07/16 03:53:42;;;;;;;;;8.67;8.67;;;;;-147.70;100.00;61350.09;5039910;28;45428;-79
2023/07/16 03:56:07;;;;;;;;;10.67;8.00;;;;;-147.70;100.00;61350.09;5040026;28;45317;-80
2023/07/16 03:58:33;;;;;;;;;6.67;6.00;;;;;-147.70;100.00;61350.09;5040235;28;45293;-80
2023/07/16 04:00:58;;;;;;;;;7.00;7.00;;;;;-147.70;100.00;61350.09;5039916;28;46357;-80
2023/07/16 04:03:23;;;;;;;;;9.33;7.33;;;;;-147.70;100.00;61350.09;5039720;28;45250;-82
2023/07/16 04:05:49;;;;;;;;;9.33;8.00;;;;;-147.70;100.00;61350.09;5040058;28;45238;-78
2023/07/16 04:08:14;;;;;;;;;9.67;7.00;;;;;-147.70;100.00;61350.09;5039941;28;45519;-83
2023/07/16 04:10:39;;;;;;;;;5.67;5.67;;;;;-147.70;100.00;61350.09;5039623;28;45420;-79
2023/07/16 04:13:05;;;;;;;;;9.67;8.00;;;;;-147.70;100.00;61350.09;5039981;28;45355;-80
2023/07/16 04:15:30;;;;;;;;;9.33;8.00;;;;;-147.70;100.00;61350.09;5039766;28;45397;-81
2023/07/16 04:17:55;;;;;;;;;10.33;8.00;;;;;-147.70;100.00;61350.09;5039972;28;45395;-82
2023/07/16 04:20:21;;;;;;;;;13.00;9.33;;;;;-147.70;100.00;61350.09;5039485;28;46730;-81
2023/07/16 04:22:46;;;;;;;;;10.33;9.00;;;;;-147.70;100.00;61350.09;5039402;28;45227;-82
2023/07/16 04:25:12;;;;;;;;;12.33;8.33;;;;;-147.70;100.00;61350.09;5039779;28;45305;-79
2023/07/16 04:27:37;;;;;;;;;10.33;8.33;;;;;-147.70;100.00;61350.09;5039789;28;45399;-82
2023/07/16 04:30:03;;;;;;;;;12.67;9.33;;;;;-147.70;100.00;61350.09;5039377;28;46277;-78
2023/07/16 04:32:28;;;;;;;;;14.00;10.00;;;;;-147.70;100.00;61350.09;5039461;28;45320;-82
2023/07/16 04:34:54;;;;;;;;;11.00;8.33;;;;;-147.70;100.00;61350.09;5039436;28;45350;-86
2023/07/16 04:37:19;;;;;;;;;11.00;8.33;;;;;-147.70;100.00;61350.09;5039540;28;45427;-79
2023/07/16 04:39:44;;;;;;;;;12.00;12.00;;;;;-147.70;100.00;61350.09;5039312;28;45590;-82
2023/07/16 04:42:10;;;;;;;;;9.33;9.33;;;;;-147.70;100.00;61350.09;5039348;28;45352;-81
2023/07/16 04:44:35;;;;;;;;;11.67;10.33;;;;;-147.70;100.00;61350.09;5038048;28;45335;-81
2023/07/16 04:47:00;;;;;;;;;12.33;8.67;;;;;-147.70;100.00;61350.09;5039493;28;45315;-80
2023/07/16 04:49:26;;;;;;;;;9.33;9.33;;;;;-147.70;100.00;61350.09;5039144;28;45346;-83
2023/07/16 04:51:51;;;;;;;;;8.00;8.00;;;;;-147.70;100.00;61350.09;5038899;28;45484;-82
2023/07/16 04:54:16;;;;;;;;;8.33;8.00;;;;;-147.70;100.00;61350.09;5037750;28;45299;-79
2023/07/16 04:56:42;;;;;;;;;12.00;10.33;;;;;-147.70;100.00;61350.09;5039387;28;45472;-81
2023/07/16 04:59:07;;;;;;;;;6.00;6.00;;;;;-147.70;100.00;61350.09;5038900;28;46569;-81
2023/07/16 05:01:32;;;;;;;;;12.67;9.67;;;;;-147.70;100.00;61350.09;5039072;28;45513;-82
2023/07/16 05:03:58;;;;;;;;;17.33;12.00;;;;;-147.70;100.00;61350.09;5038764;28;45456;-81
2023/07/16 05:06:23;;;;;;;;;10.33;9.00;;;;;-147.70;100.00;61350.09;5039186;28;45372;-80
2023/07/16 05:08:48;;;;;;;;;15.67;10.33;;;;;-147.70;100.00;61350.09;5038780;28;45301;-80
2023/07/16 05:11:13;;;;;;;;;10.67;7.00;;;;;-147.70;100.00;61350.09;5038860;28;45213;-78
2023/07/16 05:13:39;;;;;;;;;9.33;9.00;;;;;-147.70;100.00;61350.09;5038830;28;45235;-81
2023/07/16 05:16:04;;;;;;;;;10.67;9.33;;;;;-147.70;100.00;61350.09;5038910;28;45270;-83
2023/07/16 05:18:29;;;;;;;;;12.00;10.33;;;;;-147.70;100.00;61350.09;5038736;28;46721;-81
2023/07/16 05:20:55;;;;;;;;;12.33;9.33;;;;;-147.70;100.00;61350.09;5038703;28;45369;-81
2023/07/16 05:23:20;;;;;;;;;28.33;26.67;;;;;-147.70;100.00;61350.09;5038847;28;45314;-82
2023/07/16 05:25:49;;;;;;;;;14.00;13.67;;;;;-147.70;100.00;61350.09;5038723;28;45341;-79
2023/07/16 05:28:16;;;;;;;;;16.33;10.00;;;;;-147.70;100.00;61350.09;5038556;28;46841;-81
2023/07/16 05:30:41;;;;;;;;;12.33;11.00;;;;;-147.70;100.00;61350.09;5038400;28;45430;-83
2023/07/16 05:33:06;;;;;;;;;8.33;8.00;;;;;-147.70;100.00;61350.09;5038516;28;45305;-81
2023/07/16 05:35:32;;;;;;;;;11.67;9.67;;;;;-147.70;100.00;61350.09;5038460;28;45416;-81
2023/07/16 05:37:57;;;;;;;;;11.67;7.00;;;;;-147.70;100.00;61350.09;5038360;28;45287;-81
2023/07/16 05:40:22;;;;;;;;;10.67;9.33;;;;;-147.70;100.00;61350.09;5038370;28;45248;-81
2023/07/16 05:42:48;;;;;;;;;15.00;11.67;;;;;-147.70;100.00;61350.09;5038741;28;45279;-80
2023/07/16 05:45:13;;;;;;;;;7.67;7.00;;;;;-147.70;100.00;61350.09;5038721;28;45230;-79
2023/07/16 05:47:38;;;;;;;;;11.00;9.33;;;;;-147.70;100.00;61350.09;5038118;28;45217;-80
2023/07/16 05:50:05;;;;;;;;;11.33;9.33;;;;;-147.70;100.00;61350.09;5038297;28;45435;-80
2023/07/16 05:52:30;;;;;;;;;13.33;11.67;;;;;-147.70;100.00;61350.09;5038167;28;45309;-81
2023/07/16 05:54:55;;;;;;;;;9.33;7.67;;;;;-147.70;100.00;61350.09;5038250;28;45436;-80
2023/07/16 05:57:21;;;;;;;;;9.33;8.00;;;;;-147.70;100.00;61350.09;5037580;28;46084;-81
2023/07/16 05:59:46;;;;;;;;;24.00;20.33;;;;;-147.70;100.00;61350.09;5038078;28;45213;-80
2023/07/16 06:02:11;;;;;;;;;8.00;8.00;;;;;-147.70;100.00;61350.09;5037804;28;45220;-82
2023/07/16 06:04:37;;;;;;;;;13.00;11.67;;;;;-147.70;100.00;61350.09;5038241;28;45466;-80
2023/07/16 06:07:02;;;;;;;;;11.33;8.00;;;;;-147.70;100.00;61350.09;5037752;28;46568;-81
2023/07/16 06:09:27;;;;;;;;;12.00;8.67;;;;;-147.70;100.00;61350.09;5037945;28;45417;-82
2023/07/16 06:11:53;;;;;;;;;11.00;7.33;;;;;-147.70;100.00;61350.09;5038167;28;45453;-80
2023/07/16 06:14:18;;;;;;;;;12.00;7.33;;;;;-147.70;100.00;61350.09;5038181;28;45408;-80
2023/07/16 06:16:43;;;;;;;;;13.67;9.67;;;;;-147.70;100.00;61350.09;5037744;28;46227;-81
2023/07/16 06:19:09;;;;;;;;;11.67;9.33;;;;;-147.70;100.00;61350.09;5037702;28;45369;-82
2023/07/16 06:21:34;;;;;;;;;13.00;9.00;;;;;-147.70;100.00;61350.09;5037770;28;45500;-84
2023/07/16 06:24:00;;;;;;;;;13.00;8.00;;;;;-147.70;100.00;61350.09;5038000;28;45340;-79
2023/07/16 06:26:25;;;;;;;;;14.33;9.67;;;;;-147.70;100.00;61350.09;5037432;28;46247;-79
2023/07/16 06:28:51;;;;;;;;;15.00;11.67;;;;;-147.70;100.00;61350.09;5037598;28;45392;-82
2023/07/16 06:31:17;;;;;;;;;12.00;8.67;;;;;-147.70;100.00;61350.09;5037862;28;45754;-80
2023/07/16 06:33:42;;;;;;;;;9.00;9.00;;;;;-147.70;100.00;61350.09;5037931;28;45353;-82
2023/07/16 06:36:08;;;;;;;;;10.00;8.67;;;;;-147.70;100.00;61350.09;5037455;28;46550;-80
2023/07/16 06:38:34;;;;;;;;;8.67;8.67;;;;;-147.70;100.00;61350.09;5037441;28;45332;-79
2023/07/16 06:40:59;;;;;;;;;10.67;7.33;;;;;-147.70;100.00;61350.09;5037600;28;45210;-81
2023/07/16 06:43:24;;;;;;;;;8.00;7.00;;;;;-147.70;100.00;61350.09;5037726;28;45547;-81
2023/07/16 06:45:50;;;;;;;;;14.33;10.33;;;;;-147.70;100.00;61350.09;5037175;28;46205;-80
2023/07/16 06:48:16;;;;;;;;;11.00;10.33;;;;;-147.70;100.00;61350.09;5037450;28;45279;-81
2023/07/16 06:50:41;;;;;;;;;11.00;7.67;;;;;-147.70;100.00;61350.09;5037454;28;45363;-81
2023/07/16 06:53:07;;;;;;;;;8.00;8.00;;;;;-147.70;100.00;61350.09;5037594;28;45345;-82
2023/07/16 06:55:32;;;;;;;;;11.33;9.00;;;;;-147.70;100.00;61350.09;5037087;28;45342;-80
2023/07/16 06:57:57;;;;;;;;;8.67;7.33;;;;;-147.70;100.00;61350.09;5037334;28;45626;-83
2023/07/16 07:00:23;;;;;;;;;10.00;8.33;;;;;-147.70;100.00;61350.09;5037464;28;45396;-81
2023/07/16 07:02:48;;;;;;;;;10.33;10.33;;;;;-147.70;100.00;61350.09;5037126;28;45508;-82
2023/07/16 07:05:13;;;;;;;;;9.67;8.33;;;;;-147.70;100.00;61350.09;5037091;28;46559;-81
2023/07/16 07:07:39;;;;;;;;;7.00;5.67;;;;;-147.70;100.00;61350.09;5037275;28;45455;-82
2023/07/16 07:10:05;;;;;;;;;8.00;8.00;;;;;-147.70;100.00;61350.09;5040923;28;45604;-81
2023/07/16 07:12:34;;;;;;;;;10.00;8.00;;;;;-147.70;100.00;61350.09;5041056;28;45479;-82
2023/07/16 07:15:00;;;;;;;;;14.33;9.00;;;;;-147.70;100.00;61350.09;5040347;28;47001;-81
2023/07/16 07:17:25;;;;;;;;;9.67;6.67;;;;;-147.70;100.00;61350.09;5040418;28;45229;-84
2023/07/16 07:19:50;;;;;;;;;9.00;7.00;;;;;-147.70;100.00;61350.09;5040731;28;45284;-80
2023/07/16 07:22:16;;;;;;;;;8.67;8.67;;;;;-147.70;100.00;61350.09;5040719;28;45269;-82
2023/07/16 07:24:41;;;;;;;;;8.00;7.00;;;;;-147.70;100.00;61350.09;5040669;28;46357;-82
2023/07/16 07:27:06;;;;;;;;;10.33;6.00;;;;;-147.70;100.00;61350.09;5040392;28;45305;-82
2023/07/16 07:29:32;;;;;;;;;6.00;5.00;;;;;-147.70;100.00;61350.09;5040554;28;45244;-83
2023/07/16 07:31:57;;;;;;;;;11.00;10.00;;;;;-147.70;100.00;61350.09;5040679;28;45555;-82
2023/07/16 07:34:22;;;;;;;;;11.67;9.00;;;;;-147.70;100.00;61350.09;5040167;28;46320;-83
2023/07/16 07:36:48;;;;;;;;;11.00;7.67;;;;;-147.70;100.00;61350.09;5040453;28;45419;-84
2023/07/16 07:39:14;;;;;;;;;10.33;7.00;;;;;-147.70;100.00;61350.09;5040395;28;45345;-84
2023/07/16 07:41:39;;;;;;;;;12.33;9.00;;;;;-147.70;100.00;61350.09;5040410;28;45337;-83
2023/07/16 07:44:04;;;;;;;;;6.33;6.00;;;;;-147.70;100.00;61350.09;5040146;28;45314;-83
2023/07/16 07:46:30;;;;;;;;;10.67;8.33;;;;;-147.70;100.00;61350.09;5040036;28;45319;-81
2023/07/16 07:48:55;;;;;;;;;10.67;8.67;;;;;-147.70;100.00;61350.09;5038915;28;45328;-82
2023/07/16 07:51:20;;;;;;;;;8.00;7.33;;;;;-147.70;100.00;61350.09;5040174;28;45373;-82
2023/07/16 07:53:46;;;;;;;;;6.67;6.67;;;;;-147.70;100.00;61350.09;5039578;28;46156;-82
2023/07/16 07:56:11;;;;;;;;;9.33;7.00;;;;;-147.70;100.00;61350.09;5039959;28;45405;-81
2023/07/16 07:58:37;;;;;;;;;11.00;7.33;;;;;-147.70;100.00;61350.09;5039950;28;45313;-79
2023/07/16 08:01:08;;;;;;;;;10.00;7.00;;;;;-147.70;100.00;61350.09;5040287;28;45473;-80
2023/07/16 08:03:34;;;;;;;;;8.00;7.00;;;;;-147.70;100.00;61350.09;5039466;28;45585;-81
2023/07/16 08:06:00;;;;;;;;;6.00;6.00;;;;;-147.70;100.00;61350.09;5039589;28;45439;-80
2023/07/16 08:08:26;;;;;;;;;5.67;5.00;;;;;-147.70;100.00;61350.09;5039920;28;45543;-81
2023/07/16 08:10:51;;;;;;;;;7.33;6.33;;;;;-147.70;100.00;61350.09;5039915;28;45317;-80
2023/07/16 08:13:16;;;;;;;;;7.33;7.00;;;;;-147.70;100.00;61350.09;5039763;28;46494;-81
2023/07/16 08:15:42;;;;;;;;;8.33;7.00;;;;;-147.70;100.00;61350.09;5039562;28;45401;-81
2023/07/16 08:18:07;;;;;;;;;5.00;5.00;;;;;-147.70;100.00;61350.09;5039889;28;45291;-81
2023/07/16 08:20:32;;;;;;;;;9.00;5.67;;;;;-147.70;100.00;61350.09;5039641;28;45347;-81
2023/07/16 08:22:58;;;;;;;;;5.67;5.67;;;;;-147.70;100.00;61350.09;5039363;28;46499;-82
2023/07/16 08:25:23;;;;;;;;;9.00;7.33;;;;;-147.70;100.00;61350.09;5039891;28;45429;-81
2023/07/16 08:27:48;;;;;;;;;7.67;5.33;;;;;-147.70;100.00;61350.09;5039617;28;45340;-84
2023/07/16 08:30:14;;;;;;;;;6.67;4.67;;;;;-147.70;100.00;61350.09;5039782;28;45415;-82
2023/07/16 08:32:39;;;;;;;;;9.00;6.00;;;;;-147.70;100.00;61350.09;5039318;28;46282;-81
2023/07/16 08:35:05;;;;;;;;;15.00;12.67;;;;;-147.70;100.00;61350.09;5039376;28;45313;-82
2023/07/16 08:37:31;;;;;;;;;8.00;6.67;;;;;-147.70;100.00;61350.09;5039522;28;45207;-82
2023/07/16 08:39:56;;;;;;;;;8.00;5.00;;;;;-147.70;100.00;61350.09;5039520;28;45216;-83
2023/07/16 08:42:21;;;;;;;;;8.33;7.67;;;;;-147.70;100.00;61350.09;5039081;28;45417;-83
2023/07/16 08:44:50;;;;;;;;;10.00;5.33;;;;;-147.70;100.00;61350.09;5039383;28;45440;-83
2023/07/16 08:47:16;;;;;;;;;3.67;3.67;;;;;-147.70;100.00;61350.09;5039242;28;45315;-80
2023/07/16 08:49:54;;;;;;;;;2.00;2.00;;;;;-147.70;100.00;61350.09;5039472;28;45401;-81
2023/07/16 08:52:20;;;;;;;;;0.00;0.00;;;;;-147.70;100.00;61350.09;5038747;28;47433;-80
2023/07/16 08:54:45;;;;;;;;;2.75;0.00;;;;;-147.70;100.00;61350.09;5038747;28;45475;-81
2023/07/16 08:57:11;;;;;;;;;2.33;0.00;;;;;-147.70;100.00;61350.09;5039388;28;45298;-83
2023/07/16 08:59:37;;;;;;;;;3.00;0.33;;;;;-147.70;100.00;61350.09;5039319;28;45318;-80
2023/07/16 09:02:02;;;;;;;;;1.00;1.00;;;;;-147.70;100.00;61350.09;5038759;28;46530;-80
2023/07/16 09:04:29;;;;;;;;;0.67;0.67;;;;;-147.70;100.00;61350.09;5038927;28;45349;-78
2023/07/16 09:06:55;;;;;;;;;0.00;0.00;;;;;-147.70;100.00;61350.09;5038811;28;45415;-82
2023/07/16 09:09:22;;;;;;;;;1.00;0.00;;;;;-147.70;100.00;61350.09;5039042;28;45360;-82
2023/07/16 09:11:48;;;;;;;;;0.00;0.00;;;;;-147.70;100.00;61350.09;5039023;28;45700;-83
2023/07/16 09:14:18;;;;;;;;;0.00;0.00;;;;;-147.70;100.00;61350.09;5038933;28;45311;-81
2023/07/16 09:16:50;;;;;;;;;0.00;0.00;;;;;-147.70;100.00;61350.09;5038882;28;45469;-78
2023/07/16 09:19:18;;;;;;;;;5.33;4.67;;;;;-147.70;100.00;61350.09;5039113;28;45359;-79
2023/07/16 09:21:49;;;;;;;;;1.00;1.00;;;;;-147.70;100.00;61350.09;5038632;28;45415;-82
2023/07/16 09:24:15;;;;;;;;;6.33;2.33;;;;;-147.70;100.00;61350.09;5038545;28;45317;-81
2023/07/16 09:26:49;;;;;;;;;1.67;1.33;;;;;-147.70;100.00;61350.09;5038574;28;45192;-79
2023/07/16 09:29:15;;;;;;;;;2.00;2.00;;;;;-147.70;100.00;61350.09;5039224;28;45323;-80
2023/07/16 09:31:57;;;;;;;;;1.00;1.00;;;;;-147.70;100.00;61350.09;5038022;28;45409;-81
2023/07/16 09:34:26;;;;;;;;;2.33;2.00;;;;;-147.70;100.00;61350.09;5038623;28;45518;-86
2023/07/16 09:36:51;;;;;;;;;2.00;2.00;;;;;-147.70;100.00;61350.09;5038578;28;45373;-81
2023/07/16 09:39:19;;;;;;;;;3.00;2.00;;;;;-147.70;100.00;61350.09;5038858;28;45175;-83
2023/07/16 09:41:48;;;;;;;;;3.67;3.00;;;;;-147.70;100.00;61350.09;5038387;28;47477;-84
2023/07/16 09:44:14;;;;;;;;;3.00;2.33;;;;;-147.70;100.00;61350.09;5053890;28;45424;-81
2023/07/16 09:46:40;;;;;;;;;4.00;3.33;;;;;-147.70;100.00;61350.09;5038594;28;45333;-81
2023/07/16 09:49:07;;;;;;;;;9.00;5.67;;;;;-147.70;100.00;61350.09;5038724;28;45217;-81
2023/07/16 09:51:35;;;;;;;;;1.67;1.67;;;;;-147.70;100.00;61350.09;5038351;28;46698;-81
2023/07/16 09:54:04;;;;;;;;;4.00;4.00;;;;;-147.70;100.00;61350.09;5038079;28;45329;-82
2023/07/16 09:56:37;;;;;;;;;3.67;3.67;;;;;-147.70;100.00;61350.09;5038357;28;45463;-82
2023/07/16 09:59:09;;;;;;;;;2.33;2.33;;;;;-147.70;100.00;61350.09;5038656;28;45398;-85
2023/07/16 10:01:38;;;;;;;;;2.67;2.67;;;;;-147.70;100.00;61350.09;5038003;28;46574;-84
2023/07/16 10:04:18;;;;;;;;;4.00;2.00;;;;;-147.70;100.00;61350.09;5064727;28;45406;-82
2023/07/16 10:06:55;;;;;;;;;4.00;2.00;;;;;-147.70;100.00;61350.09;5056025;28;45565;-83
2023/07/16 10:09:33;;;;;;;;;3.67;2.00;;;;;-147.70;100.00;61350.09;5055616;28;45501;-81
2023/07/16 10:12:11;;;;;;;;;5.67;3.00;;;;;-147.70;100.00;61350.09;5055106;28;45681;-78
2023/07/16 10:14:48;;;;;;;;;3.00;3.00;;;;;-147.70;100.00;61350.09;5055038;28;45360;-83
2023/07/16 10:17:21;;;;;;;;;4.33;3.00;;;;;-147.70;100.00;61350.09;5054719;28;45378;-81
2023/07/16 10:19:54;;;;;;;;;3.00;3.00;;;;;-147.70;100.00;61350.09;5057222;28;46596;-81
2023/07/16 10:22:42;;;;;;;;;8.00;7.00;;;;;-147.70;100.00;61350.09;5055194;28;46453;-82
2023/07/16 10:25:09;;;;;;;;;4.00;4.00;;;;;-147.70;100.00;61350.09;5048343;28;45365;-82
2023/07/16 10:27:36;;;;;;;;;7.00;4.00;;;;;-147.70;100.00;61350.09;5038984;28;45460;-78
2023/07/16 10:30:04;;;;;;;;;6.67;5.00;;;;;-147.70;100.00;61350.09;5040125;28;45444;-79
2023/07/16 10:32:31;;;;;;;;;3.00;3.00;;;;;-147.70;100.00;61350.09;5053821;28;47421;-81
2023/07/16 10:34:57;;;;;;;;;4.33;3.00;;;;;-147.70;100.00;61350.09;5043862;28;45249;-84
2023/07/16 10:37:25;;;;;;;;;5.00;3.33;;;;;-147.70;100.00;61350.09;5037704;28;45366;-81
2023/07/16 10:39:53;;;;;;;;;4.00;4.00;;;;;-147.70;100.00;61350.09;5037786;28;45422;-82
2023/07/16 10:42:20;;;;;;;;;4.00;4.00;;;;;-147.70;100.00;61350.09;5053043;28;47643;-81
2023/07/16 10:44:48;;;;;;;;;4.33;3.00;;;;;-147.70;100.00;61350.09;5053950;28;46073;-83
2023/07/16 10:47:28;;;;;;;;;5.33;3.00;;;;;-147.70;100.00;61350.09;5039036;28;45329;-80
2023/07/16 10:49:54;;;;;;;;;3.67;1.00;;;;;-147.70;100.00;61350.09;5044419;28;45396;-82
2023/07/16 10:52:21;;;;;;;;;6.33;4.00;;;;;-147.70;100.00;61350.09;5057149;28;46303;-81
2023/07/16 10:54:47;;;;;;;;;5.00;3.00;;;;;-147.70;100.00;61350.09;5056506;28;45706;-83
2023/07/16 10:57:13;;;;;;;;;4.67;3.00;;;;;-147.70;100.00;61350.09;5051216;28;45433;-80
2023/07/16 10:59:40;;;;;;;;;4.00;3.00;;;;;-147.70;100.00;61350.09;5037685;28;45364;-78
2023/07/16 11:02:09;;;;;;;;;4.00;2.33;;;;;-147.70;100.00;61350.09;5052812;28;46634;-80
2023/07/16 11:04:35;;;;;;;;;3.67;3.67;;;;;-147.70;100.00;61350.09;5057159;28;45340;-82